Coplin Plt, Maine
Current Conditions -  °F | °C
As of 7:52 PM on Sunday 23 Nov 2014 (Local Time) from KBML Reporting Station
Overcast Overcast  
Wind Chill: 35°   Ceiling: 3500
Heat Index: 35°   Visibility: 8mi
Dew Point: 33°   Wind: 0mph
Humidity: 92%   Direction: NA
Pressure: 30.09"   Gusts: NA
Location:  44.9631°N, 70.6504°W
Report Text: KBML 240052Z AUTO 00000KT 8SM OVC035 02/01 A3009 RMK AO2 SLP203 T00170006
Loading
Personal Weather Stations






























Interactive Weather Map New forecast layout! Learn more

10-Day Weather Forecast

Advertisements
Track Severe Weather on mobile